Time;durP1;ratioP1;P1;durP2;ratioP2;P2;SDS_P1;SDS_P2;PMS_P1;PMS_P2;Temp;Humidity;BMP_temperature;BMP_pressure;BME280_temperature;BME280_humidity;BME280_pressure;Samples;Min_cycle;Max_cycle;Signal;HPM_P1;HPM_P2
2021/05/02 00:00:13;;;;;;;6.50;4.28;;;16.10;75.80;;;;;;6246238;23;20004;-92
2021/05/02 00:02:39;;;;;;;18.02;7.78;;;16.10;77.90;;;;;;6246455;23;20008;-90
2021/05/02 00:05:06;;;;;;;13.77;5.72;;;16.00;78.80;;;;;;6246045;22;20023;-91
2021/05/02 00:07:32;;;;;;;6.90;3.70;;;15.90;79.20;;;;;;6246205;23;20134;-92
2021/05/02 00:09:59;;;;;;;4.47;2.55;;;15.90;79.50;;;;;;6246737;23;20028;-91
2021/05/02 00:12:26;;;;;;;3.00;2.70;;;15.80;79.40;;;;;;6246395;23;20436;-92
2021/05/02 00:14:52;;;;;;;4.45;1.95;;;15.70;79.90;;;;;;6248296;22;20424;-90
2021/05/02 00:17:18;;;;;;;3.30;1.70;;;15.70;80.50;;;;;;6253299;22;20071;-91
2021/05/02 00:19:45;;;;;;;4.03;2.22;;;15.60;80.50;;;;;;6260374;22;19992;-91
2021/05/02 00:22:12;;;;;;;3.25;2.03;;;15.60;81.20;;;;;;6258755;23;20012;-91
2021/05/02 00:24:38;;;;;;;2.20;1.92;;;15.50;81.50;;;;;;6255459;23;20363;-89
2021/05/02 00:27:04;;;;;;;5.63;2.63;;;15.50;81.70;;;;;;6246951;22;20323;-91
2021/05/02 00:29:31;;;;;;;4.93;2.05;;;15.50;81.90;;;;;;6245825;23;20008;-91
2021/05/02 00:31:58;;;;;;;4.03;1.70;;;15.50;82.10;;;;;;6246045;22;20347;-91
2021/05/02 00:34:27;;;;;;;3.72;1.92;;;15.50;82.00;;;;;;6245935;23;20004;-91
2021/05/02 00:36:53;;;;;;;3.22;2.38;;;15.50;82.10;;;;;;6246117;22;20019;-91
2021/05/02 00:39:18;;;;;;;3.13;2.20;;;15.50;82.20;;;;;;6246193;23;20028;-91
2021/05/02 00:41:46;;;;;;;4.97;2.13;;;15.60;82.40;;;;;;6246095;23;20468;-91
2021/05/02 00:44:41;;;;;;;3.85;2.17;;;15.60;82.40;;;;;;6245774;23;20001;-91
2021/05/02 00:47:30;;;;;;;7.38;2.45;;;15.60;82.90;;;;;;6245896;23;20054;-91
2021/05/02 00:50:09;;;;;;;6.15;2.40;;;15.50;82.70;;;;;;6270574;22;20004;-91
2021/05/02 00:52:47;;;;;;;3.58;2.22;;;15.40;82.90;;;;;;6247206;22;20016;-91
2021/05/02 00:55:28;;;;;;;3.85;2.70;;;15.40;83.00;;;;;;6247855;23;20007;-91
2021/05/02 00:57:58;;;;;;;5.38;2.70;;;15.40;82.90;;;;;;6247912;23;20008;-91
2021/05/02 01:00:26;;;;;;;6.30;2.67;;;15.30;83.10;;;;;;6247921;23;20487;-87
2021/05/02 01:03:03;;;;;;;5.43;3.38;;;15.30;83.30;;;;;;6250139;23;20003;-87
2021/05/02 01:05:31;;;;;;;8.50;4.03;;;15.30;83.70;;;;;;6249622;22;20004;-92
2021/05/02 01:07:58;;;;;;;7.65;4.05;;;15.20;83.60;;;;;;6249042;22;19999;-89
2021/05/02 01:10:25;;;;;;;8.13;4.75;;;15.20;84.10;;;;;;6247981;22;20335;-89
2021/05/02 01:12:59;;;;;;;7.32;4.28;;;15.10;84.30;;;;;;6247574;22;20063;-89
2021/05/02 01:15:32;;;;;;;6.88;3.50;;;15.10;84.40;;;;;;6247610;23;20004;-91
2021/05/02 01:18:09;;;;;;;6.75;3.88;;;15.10;84.50;;;;;;6249056;22;20007;-90
2021/05/02 01:20:37;;;;;;;4.88;3.45;;;15.10;84.50;;;;;;6248420;23;19996;-90
2021/05/02 01:23:10;;;;;;;6.20;3.78;;;15.00;84.50;;;;;;6249156;22;20003;-90
2021/05/02 01:25:36;;;;;;;5.55;3.45;;;15.00;84.70;;;;;;6247984;23;19996;-89
2021/05/02 01:28:03;;;;;;;6.22;3.78;;;15.00;84.90;;;;;;6247367;23;20043;-90
2021/05/02 01:30:29;;;;;;;5.13;3.63;;;15.00;84.90;;;;;;6248765;23;19992;-90
2021/05/02 01:32:56;;;;;;;5.65;3.05;;;14.90;85.00;;;;;;6247694;23;20039;-90
2021/05/02 01:35:22;;;;;;;3.97;3.20;;;14.90;85.10;;;;;;6248578;23;19992;-90
2021/05/02 01:37:49;;;;;;;5.25;3.05;;;14.90;85.30;;;;;;6247569;23;20004;-89
2021/05/02 01:40:19;;;;;;;2.45;2.25;;;14.90;85.60;;;;;;6248384;22;20423;-88
2021/05/02 01:42:46;;;;;;;4.28;3.08;;;14.80;85.40;;;;;;6249232;23;20031;-89
2021/05/02 01:45:12;;;;;;;3.97;3.08;;;14.90;85.60;;;;;;6247328;23;20038;-89
2021/05/02 01:47:46;;;;;;;3.35;2.30;;;14.80;85.70;;;;;;6247168;23;20008;-90
2021/05/02 01:50:12;;;;;;;4.45;3.00;;;14.80;85.80;;;;;;6249112;23;20031;-89
2021/05/02 01:52:51;;;;;;;6.68;3.50;;;14.80;85.80;;;;;;6249515;23;20105;-89
2021/05/02 01:55:18;;;;;;;5.65;3.40;;;14.80;86.30;;;;;;6251889;23;20031;-90
2021/05/02 01:57:46;;;;;;;3.78;2.95;;;14.70;86.10;;;;;;6250457;22;20058;-89
2021/05/02 02:00:32;;;;;;;3.28;2.90;;;14.70;86.20;;;;;;6249901;22;20423;-89
2021/05/02 02:03:01;;;;;;;3.53;2.63;;;14.70;86.50;;;;;;6247958;22;20004;-90
2021/05/02 02:05:30;;;;;;;2.70;2.50;;;14.70;86.50;;;;;;6251953;22;20481;-90
2021/05/02 02:07:56;;;;;;;3.17;2.55;;;14.70;86.70;;;;;;6247774;22;20475;-89
2021/05/02 02:10:25;;;;;;;2.38;2.17;;;14.70;86.80;;;;;;6248326;22;20000;-89
2021/05/02 02:12:51;;;;;;;2.45;2.10;;;14.70;87.00;;;;;;6250642;22;20004;-89
2021/05/02 02:15:16;;;;;;;3.90;2.30;;;14.60;86.90;;;;;;6247178;22;20377;-89
2021/05/02 02:17:43;;;;;;;2.22;2.03;;;14.60;87.00;;;;;;6247551;22;20021;-88
2021/05/02 02:20:09;;;;;;;2.60;2.30;;;14.60;87.20;;;;;;6248512;23;20008;-87
2021/05/02 02:22:40;;;;;;;3.38;2.17;;;14.60;87.30;;;;;;6247404;23;20130;-89
2021/05/02 02:25:09;;;;;;;2.13;1.95;;;14.70;87.50;;;;;;6247190;23;20428;-89
2021/05/02 02:27:36;;;;;;;2.70;2.45;;;14.70;87.60;;;;;;6246854;22;20083;-90
2021/05/02 02:30:05;;;;;;;2.40;2.20;;;14.70;88.00;;;;;;6246758;22;20004;-90
2021/05/02 02:32:34;;;;;;;3.08;2.22;;;14.70;88.10;;;;;;6246693;22;20011;-90
2021/05/02 02:35:02;;;;;;;2.40;2.20;;;14.70;88.10;;;;;;6246671;23;20008;-90
2021/05/02 02:37:28;;;;;;;3.05;2.45;;;14.70;88.20;;;;;;6247808;22;20028;-90
2021/05/02 02:39:58;;;;;;;2.65;2.45;;;14.70;88.20;;;;;;6246804;22;20012;-90
2021/05/02 02:42:25;;;;;;;4.07;2.83;;;14.70;88.20;;;;;;6248130;22;20039;-90
2021/05/02 02:44:54;;;;;;;3.45;2.80;;;14.80;88.50;;;;;;6246891;22;20008;-89
2021/05/02 02:47:22;;;;;;;4.28;3.20;;;14.80;88.50;;;;;;6246340;22;20081;-90
2021/05/02 02:49:57;;;;;;;4.45;3.30;;;14.80;88.50;;;;;;6246601;22;20004;-91
2021/05/02 02:52:25;;;;;;;4.85;3.70;;;14.80;89.50;;;;;;6247072;23;20098;-90
2021/05/02 02:54:57;;;;;;;6.38;4.47;;;14.80;88.70;;;;;;6247999;22;19993;-90
2021/05/02 02:57:27;;;;;;;6.53;4.80;;;14.90;88.80;;;;;;6249147;23;20087;-89
2021/05/02 02:59:57;;;;;;;6.25;5.60;;;14.90;88.80;;;;;;6248321;23;20004;-91
2021/05/02 03:02:24;;;;;;;5.88;4.95;;;14.90;88.70;;;;;;6246595;23;20107;-91
2021/05/02 03:04:53;;;;;;;6.25;5.00;;;14.90;88.60;;;;;;6246496;23;20004;-90
2021/05/02 03:07:24;;;;;;;7.05;4.80;;;15.00;88.70;;;;;;6246655;23;20009;-90
2021/05/02 03:09:51;;;;;;;5.90;4.82;;;15.00;88.90;;;;;;6246751;23;20005;-90
2021/05/02 03:12:21;;;;;;;6.05;5.43;;;15.00;88.90;;;;;;6247771;22;19996;-90
2021/05/02 03:14:52;;;;;;;6.68;5.57;;;15.10;89.10;;;;;;6246409;23;20004;-91
2021/05/02 03:17:21;;;;;;;6.40;4.97;;;15.20;89.40;;;;;;6246299;22;20065;-90
2021/05/02 03:19:52;;;;;;;7.25;6.45;;;15.20;89.30;;;;;;6246799;23;20083;-90
2021/05/02 03:22:52;;;;;;;7.75;5.75;;;15.20;89.40;;;;;;6246745;23;20007;-90
2021/05/02 03:25:23;;;;;;;9.43;6.40;;;15.30;89.70;;;;;;6184907;23;20083;-90
2021/05/02 03:27:57;;;;;;;8.90;6.22;;;15.40;89.10;;;;;;6247980;22;20078;-90
2021/05/02 03:30:23;;;;;;;8.43;6.88;;;15.40;89.00;;;;;;6246455;23;20023;-90
2021/05/02 03:32:51;;;;;;;8.85;7.22;;;15.50;89.00;;;;;;6246255;23;20004;-90
2021/05/02 03:35:19;;;;;;;7.15;5.97;;;15.50;88.90;;;;;;6246649;22;20004;-88
2021/05/02 03:38:03;;;;;;;6.93;6.22;;;15.50;88.80;;;;;;6248205;23;20016;-89
2021/05/02 03:40:28;;;;;;;7.28;6.35;;;15.60;88.70;;;;;;6246781;23;20094;-90
2021/05/02 03:42:54;;;;;;;7.07;6.18;;;15.60;88.80;;;;;;6247554;22;20054;-90
2021/05/02 03:45:20;;;;;;;7.65;6.22;;;15.60;88.70;;;;;;6246285;22;20008;-91
2021/05/02 03:47:46;;;;;;;8.07;5.85;;;15.60;88.70;;;;;;6247818;23;20046;-90
2021/05/02 03:50:11;;;;;;;7.85;5.78;;;15.70;88.70;;;;;;6247905;22;20356;-91
2021/05/02 03:52:37;;;;;;;8.43;6.25;;;15.70;88.80;;;;;;6247736;23;20081;-90
2021/05/02 03:55:05;;;;;;;7.45;6.07;;;15.70;88.80;;;;;;6247656;22;20016;-90
2021/05/02 03:57:30;;;;;;;6.93;5.65;;;15.80;88.80;;;;;;6246166;23;20040;-90
2021/05/02 03:59:56;;;;;;;6.78;5.85;;;15.80;88.80;;;;;;6246416;22;20003;-90
2021/05/02 04:02:22;;;;;;;7.35;6.18;;;15.80;88.70;;;;;;6246093;23;20000;-89
2021/05/02 04:04:47;;;;;;;7.55;6.18;;;15.90;88.80;;;;;;6247670;23;20007;-91
2021/05/02 04:07:14;;;;;;;6.80;5.88;;;15.90;88.70;;;;;;6246495;23;20083;-90
2021/05/02 04:09:42;;;;;;;9.18;6.68;;;16.00;88.70;;;;;;6246087;23;19996;-91
2021/05/02 04:12:09;;;;;;;8.23;6.68;;;16.00;88.60;;;;;;6220766;23;20012;-91
2021/05/02 04:14:34;;;;;;;9.38;7.82;;;16.00;88.50;;;;;;6247852;22;19996;-89
2021/05/02 04:17:05;;;;;;;8.40;7.38;;;16.00;88.60;;;;;;6249618;22;20012;-90
2021/05/02 04:19:46;;;;;;;9.93;7.38;;;16.10;88.50;;;;;;6245768;23;20011;-89
2021/05/02 04:22:14;;;;;;;8.70;6.90;;;16.10;88.50;;;;;;6246757;23;20028;-91
2021/05/02 04:24:41;;;;;;;6.97;5.93;;;16.10;88.50;;;;;;6245972;22;20011;-91
2021/05/02 04:27:07;;;;;;;6.95;6.18;;;16.20;88.50;;;;;;6245866;22;20331;-90
2021/05/02 04:29:33;;;;;;;7.40;5.72;;;16.20;88.30;;;;;;6246128;23;20004;-91
2021/05/02 04:32:00;;;;;;;8.98;5.97;;;16.30;88.40;;;;;;6250271;22;20007;-90
2021/05/02 04:34:27;;;;;;;6.38;5.28;;;16.40;88.30;;;;;;6249026;22;20004;-90
2021/05/02 04:36:55;;;;;;;7.30;5.57;;;16.50;88.20;;;;;;6250726;22;20419;-90
2021/05/02 04:39:21;;;;;;;9.50;6.70;;;16.60;88.00;;;;;;6248952;23;20091;-91
2021/05/02 04:41:48;;;;;;;6.97;5.70;;;16.60;87.70;;;;;;6249240;22;19996;-90
2021/05/02 04:44:13;;;;;;;8.45;6.55;;;16.70;87.50;;;;;;6251034;22;20289;-91
2021/05/02 04:46:40;;;;;;;8.88;7.78;;;16.70;87.20;;;;;;6250308;22;20004;-90
2021/05/02 04:49:07;;;;;;;9.23;7.38;;;16.70;87.10;;;;;;6249776;22;20001;-90
2021/05/02 04:51:33;;;;;;;8.90;7.30;;;16.80;87.00;;;;;;6248823;22;20012;-90
2021/05/02 04:53:58;;;;;;;10.80;7.43;;;16.80;87.00;;;;;;6248269;23;20489;-90
2021/05/02 04:56:24;;;;;;;10.93;7.28;;;16.90;86.90;;;;;;6256274;22;20012;-91
2021/05/02 04:58:50;;;;;;;8.07;6.75;;;16.90;86.70;;;;;;6254044;22;20000;-91
2021/05/02 05:01:16;;;;;;;6.95;6.00;;;16.90;86.40;;;;;;6247303;22;20436;-91
2021/05/02 05:03:43;;;;;;;7.97;6.65;;;17.00;86.40;;;;;;6247566;23;20087;-90
2021/05/02 05:06:09;;;;;;;11.70;7.60;;;17.10;86.60;;;;;;6248093;22;20004;-90
2021/05/02 05:08:34;;;;;;;9.82;7.40;;;17.20;86.70;;;;;;6246146;23;20297;-90
2021/05/02 05:11:00;;;;;;;9.63;7.75;;;17.40;86.60;;;;;;6247412;23;20004;-90
2021/05/02 05:13:26;;;;;;;11.90;7.88;;;17.60;86.40;;;;;;6246154;22;20004;-90
2021/05/02 05:15:56;;;;;;;10.38;8.18;;;17.80;86.10;;;;;;6245794;22;20046;-90
2021/05/02 05:18:22;;;;;;;11.68;9.20;;;18.00;85.60;;;;;;6245551;23;20004;-91
2021/05/02 05:20:49;;;;;;;9.55;7.65;;;18.20;85.10;;;;;;6247019;23;20525;-91
2021/05/02 05:23:15;;;;;;;8.75;7.00;;;18.40;84.60;;;;;;6247370;22;20049;-90
2021/05/02 05:25:41;;;;;;;9.70;6.78;;;18.60;84.20;;;;;;6247509;22;20024;-91
2021/05/02 05:28:06;;;;;;;10.88;8.45;;;18.80;83.80;;;;;;6245547;22;20004;-91
2021/05/02 05:30:33;;;;;;;17.55;11.48;;;19.00;83.30;;;;;;6246035;23;20015;-91
2021/05/02 05:33:06;;;;;;;20.58;11.82;;;19.20;82.30;;;;;;6247216;23;20015;-90
2021/05/02 05:35:32;;;;;;;26.58;13.63;;;19.30;81.20;;;;;;6247760;22;19997;-91
2021/05/02 05:37:58;;;;;;;28.65;14.88;;;19.30;80.70;;;;;;6252396;23;20044;-89
2021/05/02 05:40:25;;;;;;;26.08;13.52;;;19.40;80.20;;;;;;6252314;23;19997;-91
2021/05/02 05:42:51;;;;;;;24.75;12.25;;;19.40;79.80;;;;;;6246981;23;20082;-91
2021/05/02 05:45:19;;;;;;;18.15;12.18;;;19.50;79.80;;;;;;6246358;23;20035;-91
2021/05/02 05:47:52;;;;;;;13.65;10.88;;;19.50;79.80;;;;;;6246505;22;20342;-90
2021/05/02 05:50:18;;;;;;;;;;;19.60;79.80;;;;;;6246414;23;20004;-91
2021/05/02 05:52:45;;;;;;;13.13;8.50;;;19.70;79.40;;;;;;6217233;23;693560;-92
2021/05/02 05:55:13;;;;;;;9.50;8.20;;;19.80;79.40;;;;;;6249521;22;20055;-91
2021/05/02 05:57:39;;;;;;;10.57;7.70;;;19.90;78.70;;;;;;6246943;22;20014;-90
2021/05/02 06:00:07;;;;;;;12.05;9.43;;;20.10;78.50;;;;;;6248046;23;20004;-90
2021/05/02 06:02:33;;;;;;;12.50;9.40;;;20.10;78.00;;;;;;6249062;22;20023;-89
2021/05/02 06:04:59;;;;;;;13.65;10.38;;;20.20;77.70;;;;;;6222140;23;20008;-91
2021/05/02 06:07:25;;;;;;;20.48;11.95;;;20.30;77.00;;;;;;6247734;23;20004;-90
2021/05/02 06:09:50;;;;;;;24.00;12.82;;;20.30;76.20;;;;;;6248858;22;20015;-91
2021/05/02 06:12:16;;;;;;;18.65;13.30;;;20.40;75.70;;;;;;6249122;23;20428;-90
2021/05/02 06:14:42;;;;;;;13.65;10.25;;;20.50;75.00;;;;;;6247874;23;20309;-91
2021/05/02 06:17:08;;;;;;;18.85;10.98;;;20.50;74.60;;;;;;6247101;22;20012;-90
2021/05/02 06:19:34;;;;;;;15.68;10.85;;;20.50;73.80;;;;;;6251633;23;20001;-89
2021/05/02 06:21:59;;;;;;;15.45;11.10;;;20.60;73.70;;;;;;6257279;22;20003;-90
2021/05/02 06:24:25;;;;;;;13.18;11.02;;;20.70;73.40;;;;;;6248031;23;20005;-89
2021/05/02 06:26:51;;;;;;;12.50;10.50;;;20.80;72.70;;;;;;6247370;23;20035;-91
2021/05/02 06:29:17;;;;;;;11.00;9.35;;;21.00;72.50;;;;;;6247724;22;20008;-90
2021/05/02 06:31:43;;;;;;;12.25;9.77;;;21.00;72.30;;;;;;6247494;22;20005;-91
2021/05/02 06:34:09;;;;;;;19.23;11.48;;;21.20;71.90;;;;;;6248691;22;20032;-90
2021/05/02 06:36:35;;;;;;;22.98;12.25;;;21.30;70.70;;;;;;6248629;23;20007;-90
2021/05/02 06:39:02;;;;;;;22.20;12.10;;;21.40;70.00;;;;;;6247504;22;20439;-90
2021/05/02 06:41:28;;;;;;;22.10;12.10;;;21.40;69.30;;;;;;6246979;22;20011;-91
2021/05/02 06:43:53;;;;;;;27.33;13.65;;;21.40;68.90;;;;;;6247712;22;20448;-89
2021/05/02 06:46:28;;;;;;;23.55;12.10;;;21.40;68.30;;;;;;6222237;23;20424;-90
2021/05/02 06:48:59;;;;;;;19.17;11.80;;;21.40;68.40;;;;;;6247562;23;20035;-91
2021/05/02 06:51:26;;;;;;;17.50;11.45;;;21.40;68.30;;;;;;6247117;23;20439;-91
2021/05/02 06:53:53;;;;;;;23.77;12.55;;;21.40;68.20;;;;;;6248422;23;20023;-90
2021/05/02 06:56:19;;;;;;;20.85;12.43;;;21.40;68.10;;;;;;6247261;23;20005;-90
2021/05/02 06:58:49;;;;;;;22.23;11.98;;;21.50;67.70;;;;;;6247028;22;20004;-91
2021/05/02 07:01:15;;;;;;;15.35;10.27;;;21.50;67.40;;;;;;6250231;22;20308;-93
2021/05/02 07:03:41;;;;;;;16.58;10.52;;;21.50;67.40;;;;;;6254867;22;20091;-89
2021/05/02 07:06:07;;;;;;;15.77;9.75;;;21.50;67.50;;;;;;6249099;22;20082;-92
2021/05/02 07:08:33;;;;;;;10.55;8.50;;;21.60;67.40;;;;;;6246614;22;20083;-91
2021/05/02 07:10:59;;;;;;;13.68;8.82;;;21.60;67.40;;;;;;6246940;22;19997;-90
2021/05/02 07:13:27;;;;;;;10.45;7.80;;;21.70;67.40;;;;;;6246844;22;20083;-90
2021/05/02 07:15:53;;;;;;;11.13;7.97;;;21.80;67.10;;;;;;6246698;22;20000;-91
2021/05/02 07:18:18;;;;;;;7.70;6.93;;;21.90;66.80;;;;;;6247203;23;20010;-91
2021/05/02 07:20:45;;;;;;;7.85;6.20;;;22.00;66.70;;;;;;6246553;22;20054;-90
2021/05/02 07:23:10;;;;;;;8.77;7.20;;;22.10;66.70;;;;;;6247720;23;20012;-90
2021/05/02 07:25:36;;;;;;;8.48;7.50;;;22.30;66.30;;;;;;6247052;23;20042;-91
2021/05/02 07:28:02;;;;;;;7.88;7.03;;;22.40;66.00;;;;;;6246793;23;20408;-90
2021/05/02 07:30:28;;;;;;;8.45;6.88;;;22.50;65.70;;;;;;6248041;22;20435;-89
2021/05/02 07:32:54;;;;;;;8.88;7.35;;;22.60;65.00;;;;;;6246681;22;20005;-90
2021/05/02 07:35:19;;;;;;;6.97;6.28;;;22.50;64.30;;;;;;6246317;23;20424;-91
2021/05/02 07:37:45;;;;;;;9.80;6.63;;;22.50;64.00;;;;;;6247792;23;20008;-90
2021/05/02 07:40:11;;;;;;;11.48;6.68;;;22.50;63.70;;;;;;6248057;23;20008;-90
2021/05/02 07:42:37;;;;;;;8.85;5.80;;;22.50;63.40;;;;;;6248079;22;19992;-90
2021/05/02 07:45:05;;;;;;;10.73;6.68;;;22.50;63.40;;;;;;6250863;22;20000;-89
2021/05/02 07:47:31;;;;;;;6.75;6.03;;;22.50;63.60;;;;;;6248408;22;20022;-90
2021/05/02 07:49:57;;;;;;;8.77;5.75;;;22.50;63.40;;;;;;6246805;23;20008;-90
2021/05/02 07:52:23;;;;;;;7.63;5.80;;;22.50;63.60;;;;;;6246341;22;20023;-91
2021/05/02 07:54:48;;;;;;;7.07;5.82;;;22.50;63.50;;;;;;6246605;23;20008;-90
2021/05/02 07:57:14;;;;;;;7.40;6.45;;;22.60;63.50;;;;;;6245723;23;20008;-91
2021/05/02 07:59:40;;;;;;;7.28;5.90;;;22.60;63.10;;;;;;6246351;23;20203;-91
2021/05/02 08:02:08;;;;;;;8.63;5.38;;;22.60;63.10;;;;;;6246103;23;20496;-91
2021/05/02 08:04:38;;;;;;;6.65;5.57;;;22.50;62.90;;;;;;6246827;22;20001;-89
2021/05/02 08:07:06;;;;;;;10.35;7.20;;;22.50;62.90;;;;;;6247238;23;20416;-90
2021/05/02 08:09:32;;;;;;;11.57;7.53;;;22.50;62.60;;;;;;6246942;23;20058;-91
2021/05/02 08:11:58;;;;;;;7.07;6.35;;;22.30;62.60;;;;;;6247854;23;20004;-90
2021/05/02 08:14:23;;;;;;;7.57;6.38;;;22.30;63.00;;;;;;6246350;23;20315;-90
2021/05/02 08:16:49;;;;;;;8.82;7.10;;;22.20;63.40;;;;;;6247114;22;20055;-90
2021/05/02 08:19:15;;;;;;;10.02;6.60;;;22.20;63.60;;;;;;6245559;22;20040;-91
2021/05/02 08:21:40;;;;;;;7.60;6.90;;;22.20;63.90;;;;;;6246296;23;20004;-91
2021/05/02 08:24:06;;;;;;;10.13;7.65;;;22.30;63.80;;;;;;6220378;23;20004;-92
2021/05/02 08:26:32;;;;;;;10.98;7.97;;;22.30;63.40;;;;;;6245977;23;20331;-91
2021/05/02 08:28:58;;;;;;;9.63;7.47;;;22.40;63.50;;;;;;6245710;22;20008;-91
2021/05/02 08:31:24;;;;;;;8.32;6.82;;;22.40;63.40;;;;;;6246852;23;20003;-91
2021/05/02 08:33:49;;;;;;;11.48;7.38;;;22.40;63.40;;;;;;6245460;23;20013;-91
2021/05/02 08:36:17;;;;;;;13.88;8.98;;;22.50;63.30;;;;;;6245924;23;20046;-91
2021/05/02 08:38:43;;;;;;;11.07;8.88;;;22.50;62.90;;;;;;6246107;22;20012;-91
2021/05/02 08:41:08;;;;;;;10.40;8.45;;;22.40;62.40;;;;;;6245617;22;20057;-90
2021/05/02 08:43:35;;;;;;;11.13;7.63;;;22.40;62.20;;;;;;6245501;22;20004;-91
2021/05/02 08:46:02;;;;;;;10.73;7.50;;;22.20;62.30;;;;;;6245445;22;20012;-90
2021/05/02 08:48:28;;;;;;;9.82;7.57;;;22.10;62.50;;;;;;6245770;22;20005;-89
2021/05/02 08:50:55;;;;;;;10.57;6.85;;;22.00;62.70;;;;;;6247218;23;20304;-91
2021/05/02 08:53:22;;;;;;;8.80;7.15;;;22.00;63.00;;;;;;6244991;22;20028;-91
2021/05/02 08:55:47;;;;;;;11.75;7.53;;;21.90;63.20;;;;;;6245164;22;20024;-91
2021/05/02 08:58:17;;;;;;;9.90;6.78;;;21.80;63.40;;;;;;6246867;23;20000;-91
2021/05/02 09:00:44;;;;;;;10.80;7.80;;;21.80;63.70;;;;;;6246592;22;20004;-91
2021/05/02 09:03:10;;;;;;;11.18;7.25;;;21.70;64.00;;;;;;6246224;22;20054;-90
2021/05/02 09:05:46;;;;;;;10.45;7.55;;;21.70;64.20;;;;;;6245489;23;20004;-89
2021/05/02 09:08:35;;;;;;;11.65;8.05;;;21.70;64.40;;;;;;6245515;23;20000;-92
2021/05/02 09:11:02;;;;;;;9.50;6.93;;;21.60;64.70;;;;;;6245209;23;20012;-90
2021/05/02 09:13:29;;;;;;;14.93;7.93;;;21.60;65.00;;;;;;6245781;23;19996;-91
2021/05/02 09:16:04;;;;;;;9.38;7.20;;;21.60;65.40;;;;;;6245843;22;20004;-90
2021/05/02 09:18:38;;;;;;;7.78;6.97;;;21.70;65.60;;;;;;6247536;23;20435;-91
2021/05/02 09:21:08;;;;;;;15.02;7.55;;;21.70;65.70;;;;;;6248747;22;20000;-91
2021/05/02 09:23:38;;;;;;;12.57;8.52;;;21.80;65.60;;;;;;6247363;23;19996;-91
2021/05/02 09:26:05;;;;;;;11.38;8.10;;;21.90;65.20;;;;;;6222431;23;20008;-90
2021/05/02 09:28:44;;;;;;;9.38;7.35;;;22.00;64.70;;;;;;6250807;22;20435;-91
2021/05/02 09:31:13;;;;;;;11.93;8.85;;;22.00;64.60;;;;;;6230529;23;20050;-91
2021/05/02 09:33:39;;;;;;;17.92;9.98;;;22.10;64.60;;;;;;6256071;23;20016;-90
2021/05/02 09:36:16;;;;;;;9.15;7.88;;;22.10;64.40;;;;;;6257965;22;20011;-90
2021/05/02 09:38:42;;;;;;;14.32;7.78;;;22.00;64.20;;;;;;6253270;22;20309;-92
2021/05/02 09:41:09;;;;;;;11.00;7.45;;;22.00;64.40;;;;;;6249284;23;20004;-90
2021/05/02 09:43:45;;;;;;;11.43;8.90;;;21.90;64.50;;;;;;6247654;23;20511;-91
2021/05/02 09:46:37;;;;;;;11.73;8.00;;;21.90;64.50;;;;;;6247382;23;20016;-91
2021/05/02 09:49:08;;;;;;;11.10;7.47;;;21.80;64.80;;;;;;6247993;23;20000;-91
2021/05/02 09:51:39;;;;;;;9.38;7.88;;;21.60;65.30;;;;;;6246894;22;20004;-91
2021/05/02 09:54:11;;;;;;;10.23;8.57;;;21.50;66.00;;;;;;6247155;23;20078;-90
2021/05/02 09:56:50;;;;;;;10.07;8.40;;;21.30;66.40;;;;;;6246836;22;20008;-91
2021/05/02 09:59:23;;;;;;;10.55;8.93;;;21.20;67.10;;;;;;6247020;23;20004;-91
2021/05/02 10:02:16;;;;;;;10.73;9.25;;;21.00;67.60;;;;;;6248495;23;19996;-90
2021/05/02 10:04:46;;;;;;;11.07;8.95;;;20.80;68.50;;;;;;6241436;23;20011;-91
2021/05/02 10:07:26;;;;;;;12.00;8.95;;;20.70;68.40;;;;;;6246791;22;20383;-91
2021/05/02 10:09:53;;;;;;;11.15;7.93;;;20.60;69.00;;;;;;6246985;23;19996;-91
2021/05/02 10:12:19;;;;;;;11.10;8.23;;;20.40;69.10;;;;;;6246361;22;20004;-91
2021/05/02 10:14:47;;;;;;;9.98;8.05;;;20.30;69.50;;;;;;6248080;22;20478;-92
2021/05/02 10:17:13;;;;;;;10.60;8.20;;;20.20;69.80;;;;;;6246500;22;20030;-91
2021/05/02 10:19:39;;;;;;;11.93;8.18;;;20.10;70.20;;;;;;6248191;23;19997;-91
2021/05/02 10:22:06;;;;;;;9.85;7.55;;;20.00;70.30;;;;;;6246515;23;20008;-90
2021/05/02 10:24:31;;;;;;;15.13;8.60;;;20.00;70.50;;;;;;6248034;23;20126;-91
2021/05/02 10:26:57;;;;;;;10.88;8.20;;;19.90;70.80;;;;;;6221026;23;20389;-91
2021/05/02 10:29:31;;;;;;;12.57;8.38;;;19.80;71.00;;;;;;6245954;23;20035;-90
2021/05/02 10:32:11;;;;;;;16.33;8.98;;;19.70;71.30;;;;;;6246672;23;20004;-90
2021/05/02 10:34:43;;;;;;;17.98;9.02;;;19.60;71.70;;;;;;6246991;23;20000;-91
2021/05/02 10:37:33;;;;;;;12.75;9.18;;;19.40;71.90;;;;;;6246936;23;20420;-90
2021/05/02 10:40:03;;;;;;;20.52;11.32;;;19.40;72.50;;;;;;6246779;23;20106;-91
2021/05/02 10:42:49;;;;;;;17.17;9.45;;;19.30;72.60;;;;;;6247321;23;20000;-92
2021/05/02 10:45:30;;;;;;;10.20;9.05;;;19.20;73.00;;;;;;6246765;23;20000;-92
2021/05/02 10:48:14;;;;;;;11.27;8.48;;;19.20;73.30;;;;;;6246295;22;20008;-90
2021/05/02 10:50:42;;;;;;;11.88;8.23;;;19.20;73.20;;;;;;6246364;23;20004;-91
2021/05/02 10:53:16;;;;;;;8.75;7.85;;;19.10;73.30;;;;;;6245954;23;20023;-91
2021/05/02 10:55:47;;;;;;;10.43;7.95;;;19.20;73.40;;;;;;6246701;23;20008;-91
2021/05/02 10:58:39;;;;;;;10.30;7.95;;;19.20;73.50;;;;;;6246048;22;20008;-90
2021/05/02 11:01:07;;;;;;;9.77;8.02;;;19.20;73.60;;;;;;6246354;23;20059;-90
2021/05/02 11:03:39;;;;;;;11.32;8.20;;;19.30;73.40;;;;;;6247745;22;19992;-92
2021/05/02 11:06:34;;;;;;;9.32;7.32;;;19.20;73.50;;;;;;6247762;22;20419;-92
2021/05/02 11:09:01;;;;;;;8.85;7.07;;;19.20;73.30;;;;;;6246366;22;20095;-91
2021/05/02 11:11:30;;;;;;;8.75;7.05;;;19.10;73.20;;;;;;6246289;22;20087;-90
2021/05/02 11:14:08;;;;;;;10.20;8.02;;;18.90;73.60;;;;;;6246279;23;20032;-91
2021/05/02 11:16:47;;;;;;;7.53;6.70;;;18.90;74.00;;;;;;6247322;22;20031;-91
2021/05/02 11:19:33;;;;;;;11.45;7.72;;;18.80;74.20;;;;;;6246554;23;20091;-91
2021/05/02 11:22:03;;;;;;;12.40;7.70;;;18.80;74.90;;;;;;6246118;22;20095;-91
2021/05/02 11:24:38;;;;;;;9.40;6.97;;;18.70;74.90;;;;;;6246352;23;20026;-91
2021/05/02 11:27:21;;;;;;;11.48;8.23;;;18.70;75.40;;;;;;6246427;22;20012;-91
2021/05/02 11:30:03;;;;;;;18.55;9.18;;;18.70;75.40;;;;;;6247867;22;20003;-91
2021/05/02 11:32:28;;;;;;;24.30;9.00;;;18.60;75.50;;;;;;6246630;23;20061;-91
2021/05/02 11:35:01;;;;;;;23.40;11.77;;;18.60;75.90;;;;;;6246259;22;20019;-91
2021/05/02 11:37:36;;;;;;;25.92;10.85;;;18.50;76.20;;;;;;6246059;23;20340;-90
2021/05/02 11:40:23;;;;;;;22.63;11.20;;;18.50;76.40;;;;;;6247592;23;19996;-91
2021/05/02 11:42:54;;;;;;;20.95;10.35;;;18.40;76.50;;;;;;6245227;22;20066;-91
2021/05/02 11:45:22;;;;;;;20.70;10.80;;;18.40;76.80;;;;;;6245890;22;20396;-91
2021/05/02 11:47:48;;;;;;;27.30;11.85;;;18.40;76.70;;;;;;6246043;23;20432;-91
2021/05/02 11:50:16;;;;;;;15.55;11.18;;;18.30;77.40;;;;;;6246319;22;20004;-90
2021/05/02 11:52:49;;;;;;;13.65;9.18;;;18.30;77.70;;;;;;6245589;22;20020;-90
2021/05/02 11:55:39;;;;;;;10.60;8.52;;;18.20;77.90;;;;;;6245916;22;20020;-92
2021/05/02 11:58:15;;;;;;;10.00;8.20;;;18.10;78.30;;;;;;6245744;23;20008;-91
2021/05/02 12:00:48;;;;;;;9.70;7.68;;;18.10;78.80;;;;;;6247351;22;20008;-90
2021/05/02 12:03:35;;;;;;;7.70;6.63;;;18.10;78.90;;;;;;6245885;23;20008;-91
2021/05/02 12:06:02;;;;;;;7.80;6.95;;;18.00;79.30;;;;;;6245449;22;20007;-91
2021/05/02 12:08:29;;;;;;;9.10;7.10;;;18.00;79.30;;;;;;6246462;23;20431;-90
2021/05/02 12:11:01;;;;;;;8.30;6.95;;;18.00;79.40;;;;;;6245811;23;20047;-91
2021/05/02 12:13:34;;;;;;;8.43;6.93;;;18.00;79.60;;;;;;6247395;22;19996;-90
2021/05/02 12:16:03;;;;;;;8.55;6.70;;;18.00;79.70;;;;;;6245470;22;20011;-91
2021/05/02 12:18:49;;;;;;;8.55;6.88;;;17.90;79.90;;;;;;6245613;23;20327;-90
2021/05/02 12:21:14;;;;;;;9.77;7.65;;;17.90;80.40;;;;;;6246271;23;20036;-91
2021/05/02 12:23:41;;;;;;;12.52;9.23;;;17.90;80.40;;;;;;6245614;23;20050;-91
2021/05/02 12:26:11;;;;;;;8.98;7.85;;;17.80;80.50;;;;;;6245422;23;20013;-91
2021/05/02 12:28:38;;;;;;;10.23;9.18;;;17.80;80.80;;;;;;6245780;23;20427;-90
2021/05/02 12:31:05;;;;;;;10.00;8.98;;;17.80;81.20;;;;;;6245783;23;20424;-90
2021/05/02 12:33:43;;;;;;;10.20;8.75;;;17.80;81.40;;;;;;6246146;22;20011;-90
2021/05/02 12:36:14;;;;;;;9.15;8.07;;;17.70;81.30;;;;;;6247187;22;20003;-91
2021/05/02 12:38:41;;;;;;;10.63;8.30;;;17.70;81.50;;;;;;6245647;22;20004;-90
2021/05/02 12:41:16;;;;;;;9.35;8.45;;;17.60;81.70;;;;;;6245377;22;20004;-91
2021/05/02 12:43:46;;;;;;;9.82;8.75;;;17.60;82.00;;;;;;6247354;22;20031;-91
2021/05/02 12:46:51;;;;;;;10.95;8.32;;;17.60;82.20;;;;;;6246836;22;20080;-90
2021/05/02 12:49:24;;;;;;;8.25;7.45;;;17.60;82.40;;;;;;6247200;22;20412;-90
2021/05/02 12:52:15;;;;;;;11.02;9.80;;;17.60;82.40;;;;;;6246698;22;20014;-92